Terminal Aerodrome Forecast
Issued by NWS

Home | Current Version | Previous Version | Text Only | Print | Product List | Glossary On
Versions: 1 2 3 4 5 6 7 8 9 10 11 12 13 14 15 16 17 18 19 20 21 22 23 24 25 26 27 28 29 30 31 32 33 34 35
000
FTAK31 PAFG 260918 AAF
TAFAMC
TAF AMD
PAMC 260918Z 2609/2706 01010G18KT 1SM -SN BR SCT006 OVC012
     FM261200 36007KT 2SM -SN SCT015 BKN030 OVC050
     FM261500 35010G15KT 2SM -SN BR BKN012 OVC025
     FM262300 35005KT 4SM -SN OVC025
     FM270300 35005KT P6SM SCT025 OVC050=

USA.gov is the U.S. government's official web portal to all federal, state and local government web resources and services.